CheckWX is a tool to help pilots better visualize weather data.  It is not intended as a substitute for an official pre-flight weather briefing.

17:18:59 UTC

EGTE METAR
Exeter International Airport
Exeter, United Kingdom
Current

29 mins ago

EGTE 181650Z 25013KT 9999 SCT035 18/10 Q1008
Observed
Aug-18 @ 16:50 UTC
Wind
  • 250° at 13 KTS
Visibility
10,000+ meters
Flight Rules
VFR
Cloud Levels
  • Scattered at 3,500' AGL
Temperature
18°C / 64°F
Dewpoint
10°C / 50°F
Humidity
60%
Altimeter
29.76" Hg
Pressure
1007.92 hPa
Previous

59 mins ago

EGTE 181620Z 25015KT 9999 SCT035 20/10 Q1008
Observed
Aug-18 @ 16:20 UTC
Wind
  • 250° at 15 KTS
Visibility
10,000+ meters
Flight Rules
VFR
Cloud Levels
  • Scattered at 3,500' AGL
Temperature
20°C / 68°F
Dewpoint
10°C / 50°F
Humidity
53%
Altimeter
29.76" Hg
Pressure
1007.92 hPa
Previous

1 hour ago

EGTE 181550Z 26011KT 230V290 9999 SCT040TCU 19/12 Q1007
Observed
Aug-18 @ 15:50 UTC
Wind
  • 260° at 11 KTS
Visibility
10,000+ meters
Flight Rules
VFR
Cloud Levels
  • Scattered at 4,000' AGL
Temperature
19°C / 66°F
Dewpoint
12°C / 54°F
Humidity
64%
Altimeter
29.73" Hg
Pressure
1006.92 hPa